Time;durP1;ratioP1;P1;durP2;ratioP2;P2;SDS_P1;SDS_P2;PMS_P1;PMS_P2;Temp;Humidity;BMP_temperature;BMP_pressure;BME280_temperature;BME280_humidity;BME280_pressure;Samples;Min_cycle;Max_cycle;Signal;HPM_P1;HPM_P2
2022/05/25 00:03:11;;;;;;;2.87;0.60;;;;;;;14.29;43.04;100145.81;10446584;28;20211;-82
2022/05/25 00:08:14;;;;;;;1.97;0.70;;;;;;;14.87;41.19;100155.41;10463983;28;20481;-80
2022/05/25 00:13:17;;;;;;;0.60;0.60;;;;;;;15.06;41.21;100152.63;10447104;28;20241;-82
2022/05/25 00:18:21;;;;;;;1.37;0.50;;;;;;;15.26;41.15;100155.47;10467278;28;20184;-83
2022/05/25 00:23:23;;;;;;;1.80;0.30;;;;;;;14.40;42.68;100164.75;10447011;28;20262;-85
2022/05/25 00:28:26;;;;;;;2.20;0.70;;;;;;;13.72;44.10;100162.06;10449407;28;20214;-85
2022/05/25 00:33:28;;;;;;;0.40;0.40;;;;;;;14.86;42.07;100165.09;10445584;28;20180;-83
2022/05/25 00:38:30;;;;;;;2.47;0.50;;;;;;;13.81;43.94;100170.41;10463229;28;20219;-82
2022/05/25 00:43:32;;;;;;;1.77;0.80;;;;;;;14.53;42.74;100168.31;10461357;28;20220;-82
2022/05/25 00:48:41;;;;;;;1.53;0.70;;;;;;;14.68;42.53;100173.16;10445288;28;20219;-83
2022/05/25 00:53:46;;;;;;;0.67;0.67;;;;;;;14.33;43.43;100173.06;10445373;28;20208;-82
2022/05/25 00:59:02;;;;;;;2.10;0.97;;;;;;;14.27;44.02;100179.38;10462111;28;20608;-82
2022/05/25 01:04:05;;;;;;;4.33;1.10;;;;;;;14.42;44.14;100187.09;10440783;28;20179;-85
2022/05/25 01:09:31;;;;;;;3.40;1.10;;;;;;;14.61;43.55;100180.66;10503003;28;20218;-85
2022/05/25 01:14:40;;;;;;;1.57;1.43;;;;;;;13.67;45.34;100184.19;10463162;28;20200;-83
2022/05/25 01:19:42;;;;;;;0.97;0.80;;;;;;;13.13;47.55;100200.69;10460549;28;20203;-82
2022/05/25 01:25:02;;;;;;;2.43;1.40;;;;;;;13.28;47.08;100200.81;10466183;28;20261;-85
2022/05/25 01:30:32;;;;;;;2.80;1.50;;;;;;;12.86;48.48;100207.91;10453425;28;20543;-94
2022/05/25 01:35:51;;;;;;;1.67;1.30;;;;;;;12.90;48.18;100211.69;10461252;28;20278;-82
2022/05/25 01:41:19;;;;;;;1.47;1.10;;;;;;;13.47;47.03;100216.31;10480153;28;20176;-83
2022/05/25 01:46:31;;;;;;;2.63;1.20;;;;;;;13.37;47.25;100217.66;10450991;28;20211;-84
2022/05/25 01:51:39;;;;;;;3.73;1.03;;;;;;;13.67;46.48;100209.66;10430609;28;20273;-87
2022/05/25 01:56:50;;;;;;;2.63;1.20;;;;;;;13.39;47.25;100210.47;10431579;28;20184;-85
2022/05/25 02:04:19;;;;;;;2.47;1.37;;;;;;;13.42;47.13;100216.59;10448078;28;20184;-95
2022/05/25 02:07:33;;;;;;;4.07;1.50;;;;;;;14.13;45.83;100208.16;10434907;28;20231;-92
2022/05/25 02:12:51;;;;;;;4.13;1.53;;;;;;;13.67;46.60;100209.66;10448885;28;20210;-87
2022/05/25 02:17:59;;;;;;;2.80;1.23;;;;;;;14.05;45.54;100207.16;10443924;28;20195;-96
2022/05/25 02:23:20;;;;;;;1.53;1.30;;;;;;;13.98;45.63;100218.25;10461832;28;20187;-96
2022/05/25 02:28:34;;;;;;;1.70;1.40;;;;;;;13.89;46.08;100220.44;10445726;28;20238;-85
2022/05/25 02:33:41;;;;;;;2.27;1.43;;;;;;;13.62;47.12;100224.91;10446213;28;20230;-95
2022/05/25 02:38:44;;;;;;;2.00;1.60;;;;;;;13.85;45.89;100228.00;10444440;28;20265;-96
2022/05/25 02:43:46;;;;;;;3.57;1.33;;;;;;;13.78;46.93;100233.47;10460339;28;20212;-80
2022/05/25 02:48:49;;;;;;;3.30;2.13;;;;;;;13.92;45.80;100245.22;10443156;28;20207;-81
2022/05/25 02:53:51;;;;;;;3.60;2.23;;;;;;;13.35;47.84;100240.66;10427517;28;20269;-84
2022/05/25 02:58:53;;;;;;;3.60;1.90;;;;;;;13.49;47.52;100240.28;10474215;28;20188;-96
2022/05/25 03:03:59;;;;;;;3.60;2.17;;;;;;;13.65;47.36;100237.53;10454752;28;20203;-86
2022/05/25 03:09:02;;;;;;;3.63;2.27;;;;;;;13.82;46.72;100242.03;10456164;28;20218;-92
2022/05/25 03:14:05;;;;;;;3.37;2.30;;;;;;;13.56;47.01;100253.81;10437968;28;20543;-88
2022/05/25 03:19:09;;;;;;;4.13;2.07;;;;;;;13.26;48.27;100261.78;10471439;28;20184;-94
2022/05/25 03:24:13;;;;;;;3.83;2.23;;;;;;;13.62;47.46;100255.22;10466888;28;20204;-82
2022/05/25 03:29:18;;;;;;;3.37;2.40;;;;;;;13.95;46.17;100255.81;10464683;28;20196;-82
2022/05/25 03:34:22;;;;;;;3.00;2.60;;;;;;;13.18;48.50;100277.66;10448320;28;20451;-83
2022/05/25 03:39:26;;;;;;;5.80;2.73;;;;;;;12.50;50.11;100280.25;10461325;28;20273;-83
2022/05/25 03:44:28;;;;;;;4.40;2.87;;;;;;;12.68;49.66;100284.50;10464768;28;20220;-83
2022/05/25 03:49:31;;;;;;;4.10;2.70;;;;;;;13.05;49.09;100278.84;10464242;28;20187;-85
2022/05/25 03:54:36;;;;;;;3.33;2.30;;;;;;;12.90;49.11;100280.38;10464744;28;20218;-82
2022/05/25 03:59:38;;;;;;;3.20;2.57;;;;;;;12.48;50.58;100285.41;10464810;28;20188;-81
2022/05/25 04:04:41;;;;;;;3.07;2.60;;;;;;;12.72;49.52;100286.63;10464070;28;20500;-93
2022/05/25 04:09:43;;;;;;;4.07;3.00;;;;;;;12.79;49.73;100293.34;10463545;28;20254;-82
2022/05/25 04:14:46;;;;;;;4.73;2.80;;;;;;;12.01;51.89;100300.97;10463864;28;20185;-83
2022/05/25 04:19:50;;;;;;;5.73;3.10;;;;;;;12.54;50.92;100300.97;10480707;28;20234;-82
2022/05/25 04:24:53;;;;;;;6.13;3.50;;;;;;;12.51;50.79;100298.81;10446279;28;20559;-81
2022/05/25 04:29:56;;;;;;;5.77;2.90;;;;;;;12.19;52.10;100302.47;10445594;28;20200;-83
2022/05/25 04:34:58;;;;;;;4.13;3.00;;;;;;;12.55;51.55;100305.44;10458227;28;20196;-83
2022/05/25 04:40:01;;;;;;;6.17;3.07;;;;;;;12.72;50.88;100310.06;10429804;28;20508;-86
2022/05/25 04:45:04;;;;;;;4.03;3.00;;;;;;;11.75;54.08;100310.50;10462761;28;20218;-86
2022/05/25 04:50:08;;;;;;;4.67;3.03;;;;;;;12.27;52.17;100310.03;10462246;28;20204;-90
2022/05/25 04:57:19;;;;;;;4.23;3.03;;;;;;;12.93;50.52;100315.63;10445404;28;20204;-82
2022/05/25 05:00:33;;;;;;;4.13;3.23;;;;;;;12.21;53.09;100322.75;10449867;28;20204;-84
2022/05/25 05:05:38;;;;;;;3.97;3.23;;;;;;;12.09;53.42;100334.00;10465920;28;20224;-85
2022/05/25 05:10:40;;;;;;;7.73;3.73;;;;;;;12.42;52.61;100332.03;10447059;28;20188;-87
2022/05/25 05:15:45;;;;;;;7.90;3.23;;;;;;;12.29;53.05;100342.44;10448113;28;20188;-82
2022/05/25 05:20:47;;;;;;;6.47;3.10;;;;;;;13.81;49.22;100329.03;10443202;28;20192;-83
2022/05/25 05:25:49;;;;;;;6.37;3.60;;;;;;;12.45;52.25;100344.63;10442957;28;20212;-83
2022/05/25 05:30:54;;;;;;;5.30;3.27;;;;;;;12.83;51.32;100347.22;10443529;28;20188;-82
2022/05/25 05:36:02;;;;;;;5.30;3.43;;;;;;;12.19;53.27;100353.34;10443118;28;20505;-82
2022/05/25 05:41:05;;;;;;;5.73;3.30;;;;;;;12.27;53.14;100361.72;10443724;28;20218;-84
2022/05/25 05:46:08;;;;;;;4.73;3.37;;;;;;;12.24;53.03;100361.63;10459941;28;20338;-82
2022/05/25 05:51:11;;;;;;;8.50;2.80;;;;;;;12.15;53.32;100358.00;10460645;28;20179;-83
2022/05/25 05:56:13;;;;;;;7.87;3.50;;;;;;;12.55;52.66;100356.34;10442693;28;20208;-80
2022/05/25 06:01:15;;;;;;;5.93;3.77;;;;;;;12.35;53.21;100362.84;10442555;28;20239;-83
2022/05/25 06:06:18;;;;;;;5.63;3.50;;;;;;;13.20;50.70;100365.91;10459768;28;20234;-84
2022/05/25 06:11:20;;;;;;;4.17;3.23;;;;;;;12.29;52.42;100370.69;10441921;28;20192;-84
2022/05/25 06:21:43;;;;;;;4.73;2.57;;;;;;;13.76;49.51;100374.63;10427717;28;20200;-85
2022/05/25 06:26:45;;;;;;;3.43;2.03;;;;;;;12.85;50.99;100381.63;10458729;28;20253;-82
2022/05/25 06:31:48;;;;;;;3.73;1.63;;;;;;;13.73;47.91;100383.84;10432629;28;20204;-82
2022/05/25 06:36:51;;;;;;;6.13;1.60;;;;;;;13.63;47.27;100392.81;10450441;28;20215;-83
2022/05/25 06:41:53;;;;;;;2.87;0.67;;;;;;;13.72;47.08;100399.19;10450809;28;20188;-83
2022/05/25 06:46:55;;;;;;;1.13;0.90;;;;;;;14.12;45.02;100396.41;10450191;28;20516;-84
2022/05/25 06:51:58;;;;;;;6.00;0.90;;;;;;;14.45;44.02;100399.88;10449972;28;20326;-82
2022/05/25 06:57:00;;;;;;;3.60;0.70;;;;;;;13.93;45.28;100404.72;10433497;28;20188;-83
2022/05/25 07:02:03;;;;;;;3.87;0.90;;;;;;;13.89;45.13;100401.75;10450079;28;20247;-82
2022/05/25 07:07:06;;;;;;;4.27;1.27;;;;;;;13.01;46.83;100408.09;10450543;28;20215;-82
2022/05/25 07:12:08;;;;;;;2.67;0.67;;;;;;;13.28;45.30;100407.47;10432991;28;20180;-88
2022/05/25 07:17:10;;;;;;;3.50;0.40;;;;;;;13.50;44.71;100417.47;10450284;28;20442;-83
2022/05/25 07:22:12;;;;;;;2.93;0.60;;;;;;;14.64;41.65;100407.69;10435153;28;20650;-83
2022/05/25 07:27:20;;;;;;;2.03;0.70;;;;;;;15.58;39.38;100395.66;10451877;28;20262;-89
2022/05/25 07:32:22;;;;;;;0.53;0.40;;;;;;;15.37;38.72;100404.44;10466249;28;20237;-91
2022/05/25 07:37:30;;;;;;;2.33;0.30;;;;;;;14.79;38.80;100404.09;10431642;28;20227;-83
2022/05/25 07:42:32;;;;;;;0.47;0.30;;;;;;;15.84;38.50;100406.44;10465470;28;20226;-88
2022/05/25 07:47:35;;;;;;;0.33;0.20;;;;;;;14.93;38.43;100397.19;10464794;28;20207;-86
2022/05/25 07:52:38;;;;;;;2.77;0.20;;;;;;;15.79;36.98;100401.03;10465449;28;20226;-86
2022/05/25 07:57:41;;;;;;;2.13;0.40;;;;;;;16.11;35.87;100408.28;10447963;28;20180;-86
2022/05/25 08:08:07;;;;;;;4.17;0.53;;;;;;;15.19;36.00;100408.00;10447009;28;20215;-88
2022/05/25 08:13:12;;;;;;;1.80;0.50;;;;;;;15.61;38.27;100422.53;10446813;28;20184;-87
2022/05/25 08:18:17;;;;;;;1.20;0.30;;;;;;;16.65;35.04;100410.31;10430112;28;20593;-83
2022/05/25 08:23:19;;;;;;;4.23;0.40;;;;;;;16.60;36.19;100406.91;10428629;28;20200;-83
2022/05/25 08:28:22;;;;;;;1.93;0.27;;;;;;;16.07;34.59;100417.94;10445913;28;20242;-82
2022/05/25 08:33:26;;;;;;;0.75;0.30;;;;;;;17.52;33.51;100409.50;10445432;28;20196;-81
2022/05/25 08:38:28;;;;;;;0.65;0.22;;;;;;;17.65;33.78;100406.50;10445485;28;20216;-83
2022/05/25 08:43:49;;;;;;;1.67;0.33;;;;;;;16.84;35.77;100404.56;10428197;28;20196;-85
2022/05/25 08:48:52;;;;;;;1.50;0.40;;;;;;;16.83;34.99;100402.94;10445146;28;20265;-81
2022/05/25 08:54:09;;;;;;;0.88;0.30;;;;;;;16.79;35.30;100399.22;10446815;28;20208;-83
2022/05/25 08:59:16;;;;;;;3.10;0.40;;;;;;;16.84;35.09;100403.75;10445454;28;20180;-81
2022/05/25 09:04:40;;;;;;;1.40;0.20;;;;;;;16.53;34.21;100414.13;10450548;28;20188;-85
2022/05/25 09:09:46;;;;;;;4.73;0.60;;;;;;;16.71;33.45;100408.78;10445327;28;20484;-84
2022/05/25 09:15:01;;;;;;;1.90;0.30;;;;;;;17.35;32.88;100403.50;10443714;28;20674;-86
2022/05/25 09:20:05;;;;;;;1.63;0.40;;;;;;;17.10;32.29;100394.50;10461489;28;20572;-80
2022/05/25 09:25:09;;;;;;;5.07;0.50;;;;;;;17.31;33.20;100397.75;10426999;28;20211;-82
2022/05/25 09:30:13;;;;;;;1.80;0.30;;;;;;;17.61;34.06;100403.56;10427925;28;20638;-81
2022/05/25 09:35:37;;;;;;;0.43;0.22;;;;;;;17.25;31.65;100416.34;10443474;28;20216;-81
2022/05/25 09:40:44;;;;;;;0.55;0.20;;;;;;;16.57;33.27;100426.38;10443310;28;20246;-84
2022/05/25 09:45:49;;;;;;;1.25;0.28;;;;;;;17.18;33.41;100422.75;10426103;28;20273;-83
2022/05/25 09:51:04;;;;;;;2.28;0.15;;;;;;;17.44;32.92;100419.16;10425779;28;20529;-86
2022/05/25 09:56:21;;;;;;;2.25;0.32;;;;;;;17.90;33.39;100422.78;10460364;28;20207;-84
2022/05/25 10:01:23;;;;;;;1.05;0.20;;;;;;;18.50;32.12;100433.44;10459312;28;20191;-83
2022/05/25 10:06:34;;;;;;;2.10;0.38;;;;;;;17.80;31.46;100431.19;10459646;28;20204;-82
2022/05/25 10:11:46;;;;;;;0.73;0.10;;;;;;;18.04;32.61;100412.78;10441768;28;20436;-85
2022/05/25 10:16:49;;;;;;;1.48;0.13;;;;;;;17.32;33.15;100422.16;10441686;28;20192;-82
2022/05/25 10:21:54;;;;;;;0.40;0.10;;;;;;;18.59;31.79;100411.97;10459222;28;20195;-82
2022/05/25 10:26:58;;;;;;;1.55;0.45;;;;;;;17.78;31.25;100422.19;10425740;28;20571;-87
2022/05/25 10:37:35;;;;;;;3.37;0.20;;;;;;;17.45;31.49;100417.94;10444357;28;20245;-80
2022/05/25 10:42:39;;;;;;;2.60;0.17;;;;;;;17.39;31.36;100418.63;10442025;28;20192;-87
2022/05/25 10:47:57;;;;;;;1.10;0.20;;;;;;;19.04;30.68;100413.72;10443694;28;20220;-81
2022/05/25 10:53:07;;;;;;;0.70;0.20;;;;;;;18.53;30.04;100406.97;10458562;28;20207;-85
2022/05/25 10:58:27;;;;;;;17.02;9.15;;;;;;;18.37;30.32;100426.31;10460587;28;20196;-82
2022/05/25 11:03:53;;;;;;;4.30;0.40;;;;;;;18.21;29.03;100423.66;10468327;28;20207;-82
2022/05/25 11:09:30;;;;;;;6.85;2.45;;;;;;;18.62;29.48;100427.47;10464088;28;20644;-82
2022/05/25 11:14:55;;;;;;;5.22;1.10;;;;;;;18.19;29.39;100426.88;10498907;28;20527;-81
2022/05/25 11:20:21;;;;;;;3.35;1.73;;;;;;;17.69;30.21;100433.84;10489884;28;20191;-81
2022/05/25 11:25:48;;;;;;;2.22;0.40;;;;;;;18.92;30.05;100436.00;10489645;28;20207;-84
2022/05/25 11:31:08;;;;;;;4.28;2.03;;;;;;;17.44;29.97;100427.72;10491409;28;20231;-83
2022/05/25 11:36:54;;;;;;;2.63;0.90;;;;;;;18.54;27.22;100423.72;10447790;28;20223;-82
2022/05/25 11:41:58;;;;;;;0.20;0.20;;;;;;;19.50;26.70;100424.81;10384300;28;20204;-83
2022/05/25 11:47:26;;;;;;;2.85;1.73;;;;;;;18.75;27.05;100426.00;10465227;28;20254;-85
2022/05/25 11:53:08;;;;;;;4.38;0.30;;;;;;;18.88;28.28;100415.97;10442494;28;20212;-85
2022/05/25 11:58:52;;;;;;;0.75;0.10;;;;;;;19.56;27.34;100420.38;10442199;28;20692;-83
2022/05/25 12:04:13;;;;;;;0.80;0.10;;;;;;;20.13;27.22;100403.66;10428827;28;20546;-84
2022/05/25 12:09:37;;;;;;;1.08;0.60;;;;;;;19.83;27.54;100408.75;10450021;28;20931;-87
2022/05/25 12:14:47;;;;;;;0.38;0.30;;;;;;;19.38;26.90;100413.69;10443492;28;20200;-88
2022/05/25 12:19:52;;;;;;;2.10;1.00;;;;;;;19.96;26.88;100404.34;10447140;28;20238;-88
2022/05/25 12:24:58;;;;;;;1.48;0.20;;;;;;;20.81;25.88;100393.41;10438703;28;20286;-88
2022/05/25 12:30:15;;;;;;;1.00;0.47;;;;;;;20.27;25.38;100397.22;10418918;28;20269;-87
2022/05/25 12:35:18;;;;;;;3.55;1.77;;;;;;;20.27;25.80;100391.50;10445060;28;20223;-88
2022/05/25 12:40:30;;;;;;;0.20;0.10;;;;;;;20.15;26.33;100401.22;10462228;28;20188;-85
2022/05/25 12:51:27;;;;;;;1.75;0.30;;;;;;;19.58;26.55;100400.81;10443198;28;20196;-88
2022/05/25 12:56:37;;;;;;;0.90;0.35;;;;;;;19.75;26.63;100399.31;10442481;28;20208;-86
2022/05/25 13:01:42;;;;;;;0.47;0.20;;;;;;;20.14;25.41;100388.13;10427879;28;20196;-89
2022/05/25 13:06:46;;;;;;;1.05;0.25;;;;;;;19.69;27.36;100395.97;10438900;28;20215;-86
2022/05/25 13:11:51;;;;;;;3.40;0.20;;;;;;;20.05;27.38;100396.22;10432819;28;20246;-86
2022/05/25 13:16:59;;;;;;;1.45;0.20;;;;;;;19.32;27.41;100403.81;10434599;28;20535;-81
2022/05/25 13:22:20;;;;;;;0.77;0.20;;;;;;;19.03;26.78;100409.22;10419026;28;20246;-85
2022/05/25 13:27:26;;;;;;;0.32;0.13;;;;;;;19.46;25.86;100395.34;10421924;28;20247;-82
2022/05/25 13:32:55;;;;;;;1.20;0.20;;;;;;;20.43;26.93;100383.41;10417486;28;20193;-80
2022/05/25 13:38:04;;;;;;;3.25;0.20;;;;;;;19.52;28.35;100390.13;10420306;28;20361;-83
2022/05/25 13:43:18;;;;;;;1.60;0.10;;;;;;;19.31;27.58;100402.97;10437975;28;20219;-87
2022/05/25 13:48:23;;;;;;;0.45;0.20;;;;;;;19.16;25.46;100400.38;10437136;28;20211;-84
2022/05/25 13:53:32;;;;;;;0.68;0.52;;;;;;;19.27;26.52;100402.13;10408013;28;20263;-83
2022/05/25 13:58:40;;;;;;;0.50;0.10;;;;;;;19.89;25.94;100398.59;10428749;28;20192;-94
2022/05/25 14:03:49;;;;;;;2.58;0.20;;;;;;;19.53;25.91;100392.56;10428248;28;20198;-87
2022/05/25 14:14:23;;;;;;;4.72;0.20;;;;;;;19.32;26.30;100400.94;10461710;28;20191;-91
2022/05/25 14:19:29;;;;;;;1.98;0.22;;;;;;;19.11;25.88;100400.75;10420493;28;20200;-89
2022/05/25 14:24:37;;;;;;;1.83;0.30;;;;;;;19.92;26.03;100400.63;10444136;28;20215;-92
2022/05/25 14:29:41;;;;;;;0.40;0.00;;;;;;;19.30;25.75;100406.22;10453056;28;20216;-83
2022/05/25 14:34:46;;;;;;;3.00;0.25;;;;;;;20.62;25.29;100387.97;10452593;28;20189;-83
2022/05/25 14:39:57;;;;;;;1.00;0.13;;;;;;;19.97;24.68;100388.81;10445830;28;20216;-90
2022/05/25 14:45:05;;;;;;;100.75;11.38;;;;;;;20.23;26.49;100382.88;10436122;28;20195;-77
2022/05/25 14:50:29;;;;;;;0.90;0.20;;;;;;;19.26;26.60;100388.25;10434991;28;20216;-89
2022/05/25 14:55:50;;;;;;;1.50;0.05;;;;;;;20.11;25.16;100377.47;10422083;28;20282;-90
2022/05/25 15:01:01;;;;;;;6.88;0.20;;;;;;;19.46;25.10;100375.34;10437818;28;20192;-88
2022/05/25 15:06:11;;;;;;;3.10;0.32;;;;;;;19.66;26.12;100379.63;10447489;28;20592;-83
2022/05/25 15:11:23;;;;;;;3.45;0.30;;;;;;;20.20;25.13;100385.72;10444982;28;20196;-84
2022/05/25 15:21:47;;;;;;;0.93;0.13;;;;;;;19.83;25.86;100386.69;10444822;28;20191;-86
2022/05/25 15:27:21;;;;;;;7.47;0.30;;;;;;;19.62;26.07;100393.09;10479096;28;20233;-81
2022/05/25 15:32:23;;;;;;;1.60;0.20;;;;;;;19.35;27.19;100394.44;10464567;28;20642;-85
2022/05/25 15:37:27;;;;;;;1.23;0.20;;;;;;;18.89;26.94;100388.22;10465372;28;20690;-81
2022/05/25 15:42:29;;;;;;;1.20;0.20;;;;;;;18.83;25.15;100389.81;10463965;28;20200;-87
2022/05/25 15:47:31;;;;;;;0.50;0.10;;;;;;;19.14;25.54;100389.34;10468442;28;20260;-86
2022/05/25 15:52:33;;;;;;;1.77;0.10;;;;;;;20.02;25.25;100386.44;10471441;28;20207;-83
2022/05/25 15:57:35;;;;;;;4.00;0.40;;;;;;;19.59;25.89;100402.44;10487525;28;20592;-87
2022/05/25 16:02:40;;;;;;;0.40;0.20;;;;;;;19.00;25.20;100404.28;10487346;28;20192;-83
2022/05/25 16:13:03;;;;;;;0.20;0.20;;;;;;;19.17;25.66;100396.31;10490385;28;20480;-81
2022/05/25 16:18:05;;;;;;;1.42;0.20;;;;;;;18.96;26.76;100408.34;10504926;28;20572;-82
2022/05/25 16:23:07;;;;;;;2.47;0.30;;;;;;;18.76;27.16;100410.53;10504675;28;20522;-81
2022/05/25 16:28:09;;;;;;;0.77;0.10;;;;;;;18.23;27.01;100398.38;10486223;28;20211;-82
2022/05/25 16:33:12;;;;;;;1.67;0.28;;;;;;;19.95;26.41;100391.25;10453746;28;20265;-84
2022/05/25 16:38:14;;;;;;;0.68;0.17;;;;;;;19.37;26.48;100401.41;10471952;28;20227;-82
2022/05/25 16:43:16;;;;;;;3.05;0.28;;;;;;;19.32;27.04;100398.09;10474031;28;20587;-81
2022/05/25 16:48:24;;;;;;;0.80;0.22;;;;;;;18.97;26.21;100404.28;10469914;28;20559;-85
2022/05/25 16:53:26;;;;;;;1.10;0.28;;;;;;;19.11;26.29;100409.31;10437255;28;20208;-84
2022/05/25 16:58:29;;;;;;;0.73;0.20;;;;;;;18.71;27.04;100419.44;10419743;28;20458;-84
2022/05/25 17:03:31;;;;;;;1.88;0.30;;;;;;;18.71;27.16;100419.44;10437386;28;20468;-84
2022/05/25 17:08:34;;;;;;;0.82;0.30;;;;;;;19.12;27.57;100410.97;10418461;28;20592;-85
2022/05/25 17:13:39;;;;;;;0.63;0.30;;;;;;;18.86;28.10;100426.97;10426782;28;20246;-86
2022/05/25 17:24:02;;;;;;;1.00;0.17;;;;;;;18.28;29.14;100433.16;10433531;28;20203;-84
2022/05/25 17:29:04;;;;;;;3.95;0.30;;;;;;;17.74;29.30;100444.91;10430977;28;20255;-84
2022/05/25 17:34:06;;;;;;;1.00;0.20;;;;;;;18.04;28.69;100445.00;10447287;28;20750;-86
2022/05/25 17:44:31;;;;;;;1.30;0.40;;;;;;;19.06;28.39;100449.66;10449711;28;20245;-87
2022/05/25 17:49:36;;;;;;;3.17;0.50;;;;;;;19.32;27.72;100438.09;10435027;28;20269;-87
2022/05/25 17:54:39;;;;;;;3.38;0.47;;;;;;;18.39;29.49;100447.56;10437232;28;20288;-87
2022/05/25 17:59:43;;;;;;;4.55;0.40;;;;;;;18.31;29.11;100460.94;10437106;28;20192;-86
2022/05/25 18:04:46;;;;;;;3.17;0.57;;;;;;;19.14;28.84;100455.06;10420954;28;20192;-87
2022/05/25 18:09:51;;;;;;;2.15;0.40;;;;;;;18.88;28.67;100470.22;10436721;28;20670;-88
2022/05/25 18:15:00;;;;;;;0.70;0.30;;;;;;;19.13;28.92;100475.47;10435846;28;20196;-85
2022/05/25 18:20:03;;;;;;;1.65;0.45;;;;;;;18.62;29.47;100476.84;10434876;28;20242;-86
2022/05/25 18:25:06;;;;;;;1.10;0.35;;;;;;;18.53;29.47;100487.72;10454743;28;20204;-85
2022/05/25 18:30:09;;;;;;;1.33;0.20;;;;;;;18.23;29.86;100483.97;10427207;28;20847;-85
2022/05/25 18:35:12;;;;;;;2.83;0.57;;;;;;;18.61;29.33;100480.09;10443147;28;20361;-84
2022/05/25 18:40:21;;;;;;;2.53;0.70;;;;;;;18.76;29.37;100483.94;10428195;28;20499;-84
2022/05/25 18:45:23;;;;;;;0.88;0.20;;;;;;;18.43;29.49;100487.59;10484016;28;20191;-84
2022/05/25 18:50:29;;;;;;;2.30;0.20;;;;;;;17.11;31.05;100488.13;10484171;28;20242;-83
2022/05/25 18:55:31;;;;;;;1.83;0.77;;;;;;;17.84;31.09;100494.75;10470682;28;20260;-82
2022/05/25 19:00:36;;;;;;;3.47;0.30;;;;;;;17.45;30.26;100494.88;10459434;28;20192;-84
2022/05/25 19:05:38;;;;;;;2.97;0.52;;;;;;;16.76;31.65;100499.56;10437447;28;20192;-84
2022/05/25 19:10:40;;;;;;;1.42;0.60;;;;;;;17.12;31.80;100500.34;10458791;28;20675;-84
2022/05/25 19:15:43;;;;;;;1.13;0.20;;;;;;;17.97;30.84;100499.88;10463287;28;20230;-84
2022/05/25 19:20:46;;;;;;;2.37;0.30;;;;;;;16.80;31.57;100511.84;10432359;28;20238;-85
2022/05/25 19:25:51;;;;;;;1.25;0.35;;;;;;;17.52;31.52;100511.28;10482523;28;20188;-85
2022/05/25 19:30:53;;;;;;;2.55;0.38;;;;;;;18.48;29.76;100516.63;10435377;28;20212;-84
2022/05/25 19:36:00;;;;;;;5.03;0.50;;;;;;;16.70;32.13;100531.53;10484969;28;20208;-89
2022/05/25 19:41:04;;;;;;;2.92;0.38;;;;;;;18.02;31.25;100524.41;10471302;28;20196;-84
2022/05/25 19:46:07;;;;;;;1.25;0.40;;;;;;;17.41;32.12;100542.44;10435772;28;20612;-86
2022/05/25 19:51:09;;;;;;;0.73;0.30;;;;;;;16.77;33.09;100546.78;10445775;28;20616;-89
2022/05/25 19:56:12;;;;;;;1.45;0.55;;;;;;;16.71;33.92;100551.09;10443744;28;20347;-85
2022/05/25 20:01:17;;;;;;;1.48;0.40;;;;;;;16.91;32.89;100549.94;10423713;28;20534;-88
2022/05/25 20:06:20;;;;;;;1.33;0.30;;;;;;;16.57;34.39;100556.47;10405778;28;20193;-84
2022/05/25 20:11:22;;;;;;;2.87;0.63;;;;;;;17.65;32.91;100557.56;10426108;28;20559;-85
2022/05/25 20:16:26;;;;;;;3.07;0.60;;;;;;;17.21;33.20;100569.28;10424613;28;20242;-84
2022/05/25 20:21:30;;;;;;;3.13;0.70;;;;;;;17.71;32.47;100573.13;10424174;28;20184;-84
2022/05/25 20:26:33;;;;;;;1.60;0.40;;;;;;;16.81;34.18;100578.13;10407594;28;20196;-85
2022/05/25 20:31:35;;;;;;;2.97;0.80;;;;;;;16.41;34.70;100572.72;10407510;28;20208;-89
2022/05/25 20:36:37;;;;;;;1.37;0.50;;;;;;;17.97;32.39;100573.22;10423392;28;20533;-84
2022/05/25 20:41:39;;;;;;;1.67;0.50;;;;;;;17.55;33.44;100584.63;10407201;28;20239;-92
2022/05/25 20:46:41;;;;;;;3.03;1.13;;;;;;;16.99;34.24;100592.81;10405772;28;20487;-85
2022/05/25 20:51:43;;;;;;;1.80;0.60;;;;;;;17.79;32.50;100587.16;10422341;28;20216;-84
2022/05/25 20:56:46;;;;;;;2.30;0.50;;;;;;;16.73;34.41;100594.25;10387804;28;20196;-84
2022/05/25 21:01:48;;;;;;;3.40;0.55;;;;;;;16.90;34.70;100605.22;10405471;28;20215;-85
2022/05/25 21:06:50;;;;;;;3.23;0.60;;;;;;;17.45;34.01;100588.91;10421283;28;20517;-84
2022/05/25 21:11:52;;;;;;;1.58;0.52;;;;;;;17.06;34.77;100598.66;10386882;28;20698;-92
2022/05/25 21:16:56;;;;;;;1.58;0.80;;;;;;;16.75;35.18;100600.41;10404118;28;20246;-82
2022/05/25 21:21:58;;;;;;;2.00;0.40;;;;;;;17.09;34.44;100595.06;10404509;28;20234;-88
2022/05/25 21:27:04;;;;;;;2.30;0.40;;;;;;;16.72;35.02;100598.28;10414841;28;20196;-86
2022/05/25 21:37:28;;;;;;;2.90;0.68;;;;;;;17.28;34.68;100609.31;10490402;28;20244;-91
2022/05/25 21:42:30;;;;;;;2.45;1.05;;;;;;;16.36;36.33;100612.88;10468958;28;20176;-90
2022/05/25 21:52:53;;;;;;;5.30;0.60;;;;;;;17.79;34.52;100601.41;10491962;28;20438;-83
2022/05/25 21:57:55;;;;;;;1.43;0.40;;;;;;;18.01;34.01;100605.47;10492107;28;20179;-83
2022/05/25 22:02:59;;;;;;;1.80;0.60;;;;;;;17.44;35.55;100606.41;10484357;28;20187;-83
2022/05/25 22:08:01;;;;;;;3.13;0.80;;;;;;;16.16;37.67;100606.22;10485263;28;20206;-94
2022/05/25 22:13:04;;;;;;;2.07;0.97;;;;;;;16.73;36.59;100607.66;10471599;28;20195;-84
2022/05/25 22:18:06;;;;;;;2.00;0.70;;;;;;;16.42;37.94;100614.22;10488278;28;20237;-84
2022/05/25 22:23:09;;;;;;;2.23;0.93;;;;;;;16.53;37.19;100612.47;10488691;28;20195;-83
2022/05/25 22:28:14;;;;;;;1.83;0.60;;;;;;;17.03;36.92;100607.97;10487504;28;20203;-91
2022/05/25 22:33:16;;;;;;;2.97;0.67;;;;;;;17.34;36.62;100612.69;10485114;28;20196;-83
2022/05/25 22:38:18;;;;;;;2.37;0.60;;;;;;;16.88;37.10;100607.63;10501895;28;20269;-86
2022/05/25 22:43:20;;;;;;;2.15;0.60;;;;;;;17.07;37.22;100603.97;10486617;28;20191;-84
2022/05/25 22:48:23;;;;;;;3.70;0.50;;;;;;;17.32;37.19;100615.09;10485830;28;20558;-83
2022/05/25 22:53:25;;;;;;;4.10;0.87;;;;;;;18.01;35.48;100604.66;10484036;28;20786;-84
2022/05/25 22:58:27;;;;;;;2.50;0.65;;;;;;;16.34;38.56;100620.94;10502569;28;20556;-83
2022/05/25 23:03:29;;;;;;;3.47;0.80;;;;;;;17.24;36.58;100619.81;10484371;28;20599;-83
2022/05/25 23:08:31;;;;;;;3.43;0.57;;;;;;;17.26;37.34;100612.53;10484080;28;20211;-83
2022/05/25 23:13:34;;;;;;;0.87;0.63;;;;;;;17.01;37.42;100622.56;10506923;28;20195;-82
2022/05/25 23:18:36;;;;;;;4.03;0.52;;;;;;;16.51;38.55;100631.94;10491047;28;20203;-83
2022/05/25 23:23:38;;;;;;;4.23;0.50;;;;;;;16.46;38.53;100630.19;10508612;28;20187;-85
2022/05/25 23:34:05;;;;;;;0.60;0.40;;;;;;;17.19;37.60;100628.63;10476667;28;20688;-88
2022/05/25 23:39:09;;;;;;;2.38;0.43;;;;;;;16.80;38.49;100637.09;10491691;28;20215;-95
2022/05/25 23:44:11;;;;;;;4.57;0.50;;;;;;;17.24;38.36;100639.75;10491778;28;20511;-93
2022/05/25 23:49:13;;;;;;;1.90;0.50;;;;;;;16.30;40.78;100637.06;10474707;28;20272;-82
2022/05/25 23:54:19;;;;;;;0.98;0.57;;;;;;;15.38;43.18;100636.13;10474385;28;20499;-82
2022/05/25 23:59:21;;;;;;;1.50;0.47;;;;;;;15.55;42.54;100637.88;10496649;28;20180;-82
